createdAt,value
2022-08-05T00:08:00.185Z,19
2022-08-05T00:09:40.921Z,19
2022-08-05T00:11:49.362Z,19.1
2022-08-05T00:13:46.930Z,19.2
2022-08-05T00:15:57.594Z,19.1
2022-08-05T00:17:56.091Z,19.1
2022-08-05T00:20:02.838Z,19.1
2022-08-05T00:22:02.152Z,18.9
2022-08-05T00:24:10.926Z,19.2
2022-08-05T00:26:08.151Z,19.2
2022-08-05T00:28:12.696Z,19.2
2022-08-05T00:30:14.174Z,19
2022-08-05T00:34:53.479Z,19.1
2022-08-05T00:37:11.628Z,19
2022-08-05T00:38:33.801Z,19
2022-08-05T00:42:35.428Z,18.9
2022-08-05T00:44:38.415Z,19
2022-08-05T00:46:44.543Z,18.9
2022-08-05T00:48:51.128Z,18.9
2022-08-05T00:50:50.595Z,18.9
2022-08-05T00:57:38.329Z,18.9
2022-08-05T01:03:38.165Z,19
2022-08-05T01:05:41.225Z,18.9
2022-08-05T01:09:47.230Z,19
2022-08-05T01:11:50.225Z,19
2022-08-05T01:13:58.809Z,18.9
2022-08-05T01:15:59.402Z,18.9
2022-08-05T01:20:05.468Z,18.8
2022-08-05T01:22:10.908Z,18.9
2022-08-05T01:24:13.164Z,19
2022-08-05T01:28:20.627Z,18.7
2022-08-05T01:32:27.719Z,18.7
2022-08-05T01:34:29.669Z,18.9
2022-08-05T01:40:38.707Z,18.8
2022-08-05T01:44:53.854Z,18.9
2022-08-05T01:46:50.906Z,18.9
2022-08-05T01:47:54.474Z,18.8
2022-08-05T01:50:01.277Z,18.7
2022-08-05T01:52:00.005Z,18.8
2022-08-05T01:54:03.028Z,18.7
2022-08-05T01:56:09.224Z,18.8
2022-08-05T01:58:16.009Z,18.8
2022-08-05T02:00:15.211Z,18.7
2022-08-05T02:02:18.307Z,18.6
2022-08-05T02:04:21.250Z,18.8
2022-08-05T02:06:38.214Z,18.8
2022-08-05T02:08:30.794Z,18.7
2022-08-05T02:10:33.383Z,18.7
2022-08-05T02:12:36.404Z,18.9
2022-08-05T02:14:39.409Z,18.7
2022-08-05T02:16:42.501Z,18.6
2022-08-05T02:18:45.491Z,18.7
2022-08-05T02:20:48.467Z,18.8
2022-08-05T02:22:51.498Z,18.9
2022-08-05T02:24:57.643Z,18.9
2022-08-05T02:27:00.638Z,18.8
2022-08-05T02:29:04.046Z,18.8
2022-08-05T02:31:07.639Z,18.6
2022-08-05T02:33:09.680Z,18.6
2022-08-05T02:39:21.917Z,18.7
2022-08-05T02:41:28.732Z,18.5
2022-08-05T02:43:27.885Z,18.7
2022-08-05T02:44:30.964Z,18.5
2022-08-05T02:46:33.984Z,18.6
2022-08-05T02:48:37.002Z,18.6
2022-08-05T02:50:43.767Z,18.5
2022-08-05T02:52:46.179Z,18.4
2022-08-05T02:54:51.206Z,18.4
2022-08-05T02:56:52.224Z,18.5
2022-08-05T02:58:55.239Z,18.7
2022-08-05T03:00:58.261Z,18.6
2022-08-05T03:03:01.282Z,18.6
2022-08-05T03:05:04.323Z,18.6
2022-08-05T03:07:17.654Z,18.5
2022-08-05T03:09:15.947Z,18.5
2022-08-05T03:11:53.436Z,18.4
2022-08-05T03:13:19.474Z,18.4
2022-08-05T03:15:23.440Z,18.6
2022-08-05T03:17:25.928Z,18.5
2022-08-05T03:19:33.953Z,18.4
2022-08-05T03:21:48.442Z,18.4
2022-08-05T03:23:37.692Z,18.3
2022-08-05T03:26:30.185Z,18.4
2022-08-05T03:27:59.300Z,18.4
2022-08-05T03:30:07.610Z,18.2
2022-08-05T03:31:56.009Z,18.3
2022-08-05T03:33:53.259Z,18.4
2022-08-05T03:35:58.914Z,18.4
2022-08-05T03:38:01.963Z,18.4
2022-08-05T03:40:05.138Z,18.4
2022-08-05T03:41:10.861Z,18.3
2022-08-05T03:43:58.503Z,18.2
2022-08-05T03:45:22.727Z,18.4
2022-08-05T03:47:17.110Z,18.4
2022-08-05T03:49:24.268Z,18.3
2022-08-05T03:52:37.150Z,18.3
2022-08-05T03:55:52.916Z,18.3
2022-08-05T03:56:05.654Z,18.3
2022-08-05T03:57:42.349Z,18.2
2022-08-05T03:59:46.968Z,18.2
2022-08-05T04:01:41.430Z,18.2
2022-08-05T04:04:09.862Z,18.3
2022-08-05T04:05:50.642Z,18.1
2022-08-05T04:07:57.879Z,18.3
2022-08-05T04:09:56.648Z,18.3
2022-08-05T04:11:59.686Z,18.3
2022-08-05T04:14:02.765Z,18.1
2022-08-05T04:16:05.746Z,18.2
2022-08-05T04:18:20.412Z,18.2
2022-08-05T04:20:14.945Z,18
2022-08-05T04:22:20.402Z,18.1
2022-08-05T04:24:22.601Z,18.1
2022-08-05T04:26:24.042Z,18.1
2022-08-05T04:28:28.538Z,18.1
2022-08-05T04:32:36.454Z,18
2022-08-05T04:34:42.877Z,18.1
2022-08-05T04:38:59.883Z,18.1
2022-08-05T04:43:05.920Z,18
2022-08-05T04:47:18.641Z,18
2022-08-05T04:53:24.216Z,17.8
2022-08-05T04:56:14.682Z,17.8
2022-08-05T04:57:30.249Z,17.8
2022-08-05T04:59:39.261Z,17.9
2022-08-05T05:03:42.818Z,18.1
2022-08-05T05:06:35.885Z,18
2022-08-05T05:07:52.909Z,18.1
2022-08-05T05:09:51.571Z,18.1
2022-08-05T05:11:58.997Z,18.1
2022-08-05T05:14:00.743Z,18.1
2022-08-05T05:18:06.788Z,18.1
2022-08-05T05:24:15.901Z,18.1
2022-08-05T05:26:18.933Z,18
2022-08-05T05:28:25.092Z,18.1
2022-08-05T05:30:31.261Z,18.2
2022-08-05T05:32:31.140Z,18.1
2022-08-05T05:33:58.820Z,18.2
2022-08-05T05:38:00.155Z,18.2
2022-08-05T05:39:44.969Z,18.1
2022-08-05T05:41:54.477Z,18.2
2022-08-05T05:43:58.650Z,18.1
2022-08-05T05:45:57.059Z,18.3
2022-08-05T05:48:05.780Z,18.4
2022-08-05T05:52:07.441Z,18.4
2022-08-05T05:56:15.306Z,18.4
2022-08-05T06:00:21.357Z,18.2
2022-08-05T06:02:32.845Z,18.3
2022-08-05T06:04:27.444Z,18.2
2022-08-05T06:06:33.100Z,18.1
2022-08-05T06:08:33.496Z,18.2
2022-08-05T06:10:52.464Z,18.5
2022-08-05T06:14:45.729Z,18.7
2022-08-05T06:16:48.720Z,18.8
2022-08-05T06:18:53.530Z,18.9
2022-08-05T06:20:54.795Z,19
2022-08-05T06:22:57.818Z,19.1
2022-08-05T06:25:24.565Z,19
2022-08-05T06:27:17.095Z,19
2022-08-05T06:29:25.170Z,18.9
2022-08-05T06:30:17.971Z,18.9
2022-08-05T06:32:21.095Z,18.9
2022-08-05T06:34:19.897Z,19
2022-08-05T06:36:26.027Z,18.9
2022-08-05T06:38:36.813Z,19
2022-08-05T06:44:37.321Z,19.4
2022-08-05T06:48:55.664Z,19.4
2022-08-05T06:53:03.955Z,19.7
2022-08-05T06:54:55.506Z,19.9
2022-08-05T06:57:57.759Z,20.1
2022-08-05T06:59:01.524Z,19.9
2022-08-05T07:01:04.617Z,19.8
2022-08-05T07:03:09.846Z,19.8
2022-08-05T07:05:14.337Z,19.8
2022-08-05T07:07:16.704Z,19.8
2022-08-05T07:09:19.723Z,19.8
2022-08-05T07:11:25.493Z,19.8
2022-08-05T07:13:58.427Z,19.8
2022-08-05T07:15:34.620Z,19.8
2022-08-05T07:18:08.414Z,19.8
2022-08-05T07:22:00.125Z,19.9
2022-08-05T07:23:50.013Z,19.8
2022-08-05T07:25:56.407Z,19.9
2022-08-05T07:28:52.958Z,20
2022-08-05T07:32:58.944Z,20.3
2022-08-05T07:36:04.593Z,20.6
2022-08-05T07:37:08.070Z,20.9
2022-08-05T07:39:24.473Z,21.1
2022-08-05T07:42:06.944Z,21
2022-08-05T07:43:20.700Z,20.8
2022-08-05T07:47:25.825Z,21
2022-08-05T07:49:29.110Z,20.8
2022-08-05T07:51:37.325Z,20.9
2022-08-05T07:53:36.670Z,20.8
2022-08-05T07:55:44.308Z,20.8
2022-08-05T07:57:58.740Z,20.9
2022-08-05T07:59:43.990Z,20.9
2022-08-05T08:01:52.047Z,21.6
2022-08-05T08:03:53.053Z,22.9
2022-08-05T08:05:56.022Z,22.9
2022-08-05T08:08:00.599Z,24
2022-08-05T08:10:01.948Z,25.3
2022-08-05T08:12:11.460Z,25.5
2022-08-05T08:14:07.869Z,27
2022-08-05T08:18:20.659Z,27.1
2022-08-05T08:20:43.574Z,27
2022-08-05T08:22:22.769Z,25.5
2022-08-05T08:24:51.397Z,25.1
2022-08-05T08:26:49.435Z,24.9
2022-08-05T08:28:59.230Z,24.1
2022-08-05T08:30:58.382Z,22.4
2022-08-05T08:35:04.253Z,21.7
2022-08-05T08:37:07.125Z,21.7
2022-08-05T08:39:15.853Z,21.6
2022-08-05T08:41:14.012Z,21
2022-08-05T08:44:55.761Z,20.8
2022-08-05T08:45:26.148Z,20.8
2022-08-05T08:48:07.685Z,22
2022-08-05T08:50:07.820Z,21.9
2022-08-05T08:52:05.848Z,22
2022-08-05T08:53:33.679Z,24
2022-08-05T08:56:03.948Z,25.4
2022-08-05T08:57:42.340Z,25.4
2022-08-05T08:59:47.381Z,27.7
2022-08-05T09:01:57.227Z,28.6
2022-08-05T09:03:54.362Z,26.4
2022-08-05T09:06:08.856Z,23.5
2022-08-05T09:07:59.129Z,22.2
2022-08-05T09:10:00.187Z,22.3
2022-08-05T09:12:12.564Z,24.6
2022-08-05T09:18:14.940Z,24.8
2022-08-05T09:23:23.787Z,24.9
2022-08-05T09:26:02.078Z,24.9
2022-08-05T09:28:04.857Z,24.3
2022-08-05T09:29:35.588Z,24
2022-08-05T09:32:40.378Z,23.9
2022-08-05T09:33:41.368Z,25
2022-08-05T09:35:44.261Z,25.5
2022-08-05T09:38:18.452Z,25.3
2022-08-05T09:39:52.394Z,23.8
2022-08-05T09:41:56.228Z,23.9
2022-08-05T09:43:58.881Z,24.4
2022-08-05T09:46:07.277Z,24.7
2022-08-05T09:48:05.113Z,25.2
2022-08-05T09:50:08.278Z,25.8
2022-08-05T09:52:10.337Z,25.5
2022-08-05T09:54:13.207Z,25.4
2022-08-05T09:56:19.193Z,25.5
2022-08-05T09:58:22.050Z,24.7
2022-08-05T10:00:24.902Z,24.3
2022-08-05T10:02:27.775Z,23.6
2022-08-05T10:04:30.570Z,24
2022-08-05T10:06:33.414Z,25.1
2022-08-05T10:08:38.169Z,24.5
2022-08-05T10:10:42.259Z,23.5
2022-08-05T10:12:49.464Z,23.7
2022-08-05T10:14:47.949Z,24.1
2022-08-05T10:17:56.611Z,24.6
2022-08-05T10:20:04.274Z,24.2
2022-08-05T10:21:59.501Z,24.1
2022-08-05T10:31:19.837Z,23.7
2022-08-05T10:36:23.613Z,23.6
2022-08-05T10:42:34.640Z,24.6
2022-08-05T10:44:37.267Z,25
2022-08-05T10:46:40.140Z,25.2
2022-08-05T10:48:56.519Z,25.7
2022-08-05T10:50:45.832Z,25.2
2022-08-05T10:54:56.942Z,24.3
2022-08-05T10:56:57.528Z,24.5
2022-08-05T10:59:11.434Z,24.8
2022-08-05T11:01:03.337Z,25.5
2022-08-05T11:03:22.798Z,24.9
2022-08-05T11:05:09.364Z,24.2
2022-08-05T11:07:14.842Z,23.9
2022-08-05T11:09:17.687Z,24
2022-08-05T11:11:20.458Z,23.8
2022-08-05T11:12:23.553Z,23.9
2022-08-05T11:14:49.442Z,23.8
2022-08-05T11:16:33.907Z,22.8
2022-08-05T11:18:32.355Z,22.6
2022-08-05T11:20:39.030Z,23.3
2022-08-05T11:22:42.160Z,23.5
2022-08-05T11:24:50.674Z,23.6
2022-08-05T11:26:49.594Z,23.7
2022-08-05T11:28:49.285Z,23.4
2022-08-05T11:30:53.711Z,23.5
2022-08-05T11:35:02.538Z,23.5
2022-08-05T11:37:06.309Z,23.9
2022-08-05T11:39:08.330Z,25.3
2022-08-05T11:41:35.578Z,25.1
2022-08-05T11:43:13.942Z,24.4
2022-08-05T11:46:14.907Z,24.6
2022-08-05T11:47:21.981Z,25.1
2022-08-05T11:49:25.667Z,24.4
2022-08-05T11:55:36.654Z,24.5
2022-08-05T11:58:07.987Z,24.5
2022-08-05T11:59:42.054Z,24
2022-08-05T12:01:42.824Z,23.2
2022-08-05T12:05:51.710Z,23.3
2022-08-05T12:08:08.297Z,24
2022-08-05T12:10:24.929Z,23.5
2022-08-05T12:12:26.609Z,23.4
2022-08-05T12:16:38.476Z,23.7
2022-08-05T12:18:38.409Z,23.4
2022-08-05T12:20:41.326Z,23.2
2022-08-05T12:22:46.124Z,23.2
2022-08-05T12:24:49.553Z,22.8
2022-08-05T12:26:49.937Z,22.8
2022-08-05T12:28:52.817Z,23.1
2022-08-05T12:35:04.661Z,22.9
2022-08-05T12:37:07.534Z,22.9
2022-08-05T12:39:10.538Z,22.8
2022-08-05T12:41:13.896Z,22.9
2022-08-05T12:43:20.954Z,23.2
2022-08-05T12:45:22.311Z,23.3
2022-08-05T12:47:25.741Z,23.1
2022-08-05T12:49:28.110Z,23.6
2022-08-05T12:52:12.422Z,23.9
2022-08-05T12:53:36.828Z,23.6
2022-08-05T12:55:36.847Z,23.9
2022-08-05T12:58:48.881Z,23.7
2022-08-05T13:02:03.204Z,23.5
2022-08-05T13:03:51.701Z,23.9
2022-08-05T13:04:54.945Z,24.3
2022-08-05T13:06:57.493Z,24.3
2022-08-05T13:09:00.368Z,24.2
2022-08-05T13:11:04.335Z,24.2
2022-08-05T13:13:09.217Z,23.4
2022-08-05T13:15:16.604Z,23
2022-08-05T13:17:14.887Z,23.1
2022-08-05T13:19:17.733Z,23.3
2022-08-05T13:21:20.570Z,23.1
2022-08-05T13:25:51.689Z,22.9
2022-08-05T13:29:37.397Z,23.5
2022-08-05T13:32:04.009Z,23.4
2022-08-05T13:34:22.810Z,23.2
2022-08-05T13:35:50.400Z,22.9
2022-08-05T13:37:46.115Z,23.1
2022-08-05T13:40:15.146Z,23.5
2022-08-05T13:41:54.810Z,25
2022-08-05T13:43:57.606Z,25
2022-08-05T13:46:00.345Z,24.6
2022-08-05T13:48:09.495Z,24.5
2022-08-05T13:50:06.879Z,24
2022-08-05T13:52:08.682Z,23.5
2022-08-05T13:54:12.485Z,23.3
2022-08-05T13:56:18.388Z,22.7
2022-08-05T13:58:30.423Z,22.5
2022-08-05T14:00:27.001Z,22.2
2022-08-05T14:01:44.310Z,22.8
2022-08-05T14:06:24.468Z,23.4
2022-08-05T14:08:01.222Z,23.6
2022-08-05T14:09:42.987Z,22.8
2022-08-05T14:12:04.297Z,22.7
2022-08-05T14:13:48.227Z,22.8
2022-08-05T14:16:08.685Z,22.5
2022-08-05T14:17:51.795Z,22.6
2022-08-05T14:19:56.812Z,22.4
2022-08-05T14:22:09.440Z,22.4
2022-08-05T14:24:03.486Z,22.5
2022-08-05T14:30:20.292Z,21.7
2022-08-05T14:32:27.163Z,22.3
2022-08-05T14:36:21.711Z,22.2
2022-08-05T14:38:32.117Z,23.8
2022-08-05T14:40:29.663Z,24.3
2022-08-05T14:42:32.776Z,24
2022-08-05T14:44:35.472Z,23.7
2022-08-05T14:46:38.383Z,23.7
2022-08-05T14:48:41.471Z,25.3
2022-08-05T14:50:44.142Z,25.8
2022-08-05T14:52:53.546Z,25.7
2022-08-05T14:54:53.447Z,26.5
2022-08-05T14:56:55.888Z,26
2022-08-05T14:57:58.880Z,25.4
2022-08-05T15:00:01.713Z,25.2
2022-08-05T15:02:15.765Z,23.5
2022-08-05T15:04:07.362Z,22.3
2022-08-05T15:06:15.724Z,24.1
2022-08-05T15:08:58.341Z,24
2022-08-05T15:10:19.697Z,23.5
2022-08-05T15:12:21.818Z,22.3
2022-08-05T15:14:34.921Z,22.3
2022-08-05T15:16:27.499Z,22.6
2022-08-05T15:18:30.356Z,22.5
2022-08-05T15:20:36.351Z,23.2
2022-08-05T15:22:39.205Z,24
2022-08-05T15:24:42.079Z,25.7
2022-08-05T15:26:44.916Z,27
2022-08-05T15:28:47.781Z,27.7
2022-08-05T15:30:52.987Z,24.9
2022-08-05T15:32:53.498Z,23.6
2022-08-05T15:34:59.493Z,22.5
2022-08-05T15:37:06.175Z,22.2
2022-08-05T15:40:41.406Z,22.4
2022-08-05T15:41:23.059Z,22.8
2022-08-05T15:43:20.545Z,24
2022-08-05T15:45:13.801Z,24
2022-08-05T15:47:16.814Z,26.2
2022-08-05T15:49:40.819Z,24.4
2022-08-05T15:52:03.983Z,23.6
2022-08-05T15:53:37.888Z,22.8
2022-08-05T16:00:03.330Z,22.4
2022-08-05T16:02:14.402Z,22.6
2022-08-05T16:04:12.234Z,22.7
2022-08-05T16:06:15.096Z,22.5
2022-08-05T16:08:17.998Z,24.7
2022-08-05T16:10:25.332Z,26.6
2022-08-05T16:12:23.937Z,26.8
2022-08-05T16:14:26.670Z,26
2022-08-05T16:16:32.695Z,24
2022-08-05T16:18:35.590Z,23.9
2022-08-05T16:20:38.473Z,24
2022-08-05T16:22:41.338Z,23.7
2022-08-05T16:24:51.878Z,24.6
2022-08-05T16:26:47.077Z,23.5
2022-08-05T16:28:49.910Z,22.3
2022-08-05T16:30:55.907Z,22.1
2022-08-05T16:32:58.788Z,22
2022-08-05T16:35:01.650Z,21.3
2022-08-05T16:38:03.495Z,21.9
2022-08-05T16:39:07.484Z,21.7
2022-08-05T16:42:14.737Z,21.8
2022-08-05T16:43:13.220Z,21.7
2022-08-05T16:46:04.344Z,21
2022-08-05T16:47:28.674Z,20.7
2022-08-05T16:49:25.139Z,21
2022-08-05T16:52:33.372Z,20.9
2022-08-05T16:58:43.057Z,21.3
2022-08-05T17:00:46.927Z,21.3
2022-08-05T17:04:51.912Z,21.5
2022-08-05T17:13:17.211Z,20.8
2022-08-05T17:15:09.927Z,20.6
2022-08-05T17:17:15.148Z,20.6
2022-08-05T17:19:15.877Z,20.6
2022-08-05T17:24:04.762Z,20.7
2022-08-05T17:25:39.185Z,20.5
2022-08-05T17:27:33.679Z,20.2
2022-08-05T17:33:48.489Z,20.5
2022-08-05T17:36:09.075Z,20.3
2022-08-05T17:37:48.401Z,20.3
2022-08-05T17:39:51.206Z,20.4
2022-08-05T17:42:17.860Z,20.1
2022-08-05T17:43:59.616Z,20.1
2022-08-05T17:46:02.650Z,20.2
2022-08-05T17:47:05.671Z,20.1
2022-08-05T17:49:08.740Z,20.1
2022-08-05T17:51:11.774Z,20
2022-08-05T17:53:14.743Z,19.9
2022-08-05T17:55:20.877Z,19.4
2022-08-05T17:57:24.575Z,19.6
2022-08-05T17:59:26.918Z,19.6
2022-08-05T18:01:29.938Z,19.5
2022-08-05T18:03:59.271Z,19.4
2022-08-05T18:05:36.206Z,19.4
2022-08-05T18:13:51.224Z,19.1
2022-08-05T18:15:54.279Z,19
2022-08-05T18:17:58.635Z,19
2022-08-05T18:20:00.542Z,18.9
2022-08-05T18:22:07.160Z,18.9
2022-08-05T18:24:09.484Z,18.9
2022-08-05T18:26:12.558Z,18.9
2022-08-05T18:28:16.386Z,18.9
2022-08-05T18:30:18.719Z,18.8
2022-08-05T18:32:21.623Z,18.7
2022-08-05T18:34:24.663Z,18.6
2022-08-05T18:36:27.895Z,18.5
2022-08-05T18:41:53.250Z,18.6
2022-08-05T18:42:40.008Z,18.5
2022-08-05T18:43:49.087Z,18.3
2022-08-05T18:47:56.410Z,18.3
2022-08-05T18:49:58.030Z,18.3
2022-08-05T18:52:06.556Z,18.2
2022-08-05T18:54:01.368Z,18
2022-08-05T18:56:04.399Z,18.2
2022-08-05T18:58:07.411Z,18.1
2022-08-05T19:00:20.587Z,18.1
2022-08-05T19:02:26.480Z,18
2022-08-05T19:04:23.903Z,17.8
2022-08-05T19:06:37.254Z,17.9
2022-08-05T19:08:30.983Z,17.9
2022-08-05T19:10:28.947Z,17.6
2022-08-05T19:12:31.824Z,17.6
2022-08-05T19:14:37.881Z,17.6
2022-08-05T19:16:46.834Z,17.6
2022-08-05T19:18:41.042Z,17.5
2022-08-05T19:20:47.116Z,17.6
2022-08-05T19:22:50.202Z,17.5
2022-08-05T19:24:56.080Z,17.5
2022-08-05T19:31:05.826Z,17.5
2022-08-05T19:33:08.877Z,17.4
2022-08-05T19:35:11.592Z,17.3
2022-08-05T19:37:14.647Z,17.2
2022-08-05T19:39:17.784Z,17.3
2022-08-05T19:42:06.553Z,17.1
2022-08-05T19:44:06.916Z,17.1
2022-08-05T19:45:54.285Z,17.1
2022-08-05T19:47:47.826Z,17
2022-08-05T19:49:50.901Z,16.9
2022-08-05T19:52:09.326Z,17.1
2022-08-05T19:54:04.847Z,17
2022-08-05T19:56:13.686Z,17
2022-08-05T19:58:10.364Z,17
2022-08-05T20:00:06.499Z,16.9
2022-08-05T20:02:12.261Z,16.9
2022-08-05T20:04:15.306Z,16.9
2022-08-05T20:06:28.500Z,16.8
2022-08-05T20:08:24.425Z,16.7
2022-08-05T20:10:25.125Z,16.6
2022-08-05T20:12:27.741Z,16.7
2022-08-05T20:16:36.686Z,16.4
2022-08-05T20:20:42.790Z,16.5
2022-08-05T20:26:51.906Z,16.3
2022-08-05T20:33:04.144Z,16.1
2022-08-05T20:35:07.190Z,16.1
2022-08-05T20:36:11.092Z,16.1
2022-08-05T20:38:20.124Z,16
2022-08-05T20:40:16.409Z,16
2022-08-05T20:46:28.696Z,16
2022-08-05T20:48:31.751Z,16
2022-08-05T20:50:36.225Z,16
2022-08-05T20:52:37.873Z,15.9
2022-08-05T20:54:42.673Z,15.8
2022-08-05T20:56:43.980Z,15.8
2022-08-05T20:58:51.977Z,15.9
2022-08-05T21:00:54.907Z,15.9
2022-08-05T21:02:57.116Z,15.8
2022-08-05T21:04:59.325Z,15.8
2022-08-05T21:07:02.393Z,15.8
2022-08-05T21:09:05.580Z,15.7
2022-08-05T21:13:18.674Z,15.7
2022-08-05T21:15:17.880Z,15.7
2022-08-05T21:17:21.392Z,15.7
2022-08-05T21:19:23.972Z,15.7
2022-08-05T21:29:42.704Z,15.4
2022-08-05T21:31:45.784Z,15.5
2022-08-05T21:35:06.726Z,15.3
2022-08-05T21:36:55.287Z,15.2
2022-08-05T21:38:58.688Z,15.1
2022-08-05T21:41:04.841Z,15.1
2022-08-05T21:43:08.235Z,15.1
2022-08-05T21:45:11.171Z,15.1
2022-08-05T21:47:32.808Z,15.1
2022-08-05T21:53:27.671Z,15
2022-08-05T21:57:33.698Z,14.9
2022-08-05T21:59:54.465Z,14.9
2022-08-05T22:01:39.807Z,14.8
2022-08-05T22:03:51.955Z,14.8
2022-08-05T22:05:48.988Z,14.7
2022-08-05T22:09:57.005Z,14.7
2022-08-05T22:11:58.840Z,14.7
2022-08-05T22:14:05.792Z,14.7
2022-08-05T22:16:20.506Z,14.7
2022-08-05T22:18:08.697Z,14.5
2022-08-05T22:20:13.582Z,14.5
2022-08-05T22:22:14.662Z,14.5
2022-08-05T22:24:40.385Z,14.4
2022-08-05T22:26:24.290Z,14.4
2022-08-05T22:28:27.391Z,14.4
2022-08-05T22:31:44.411Z,14.4
2022-08-05T22:37:59.168Z,14.6
2022-08-05T22:39:50.529Z,14.5
2022-08-05T22:42:09.460Z,14.6
2022-08-05T22:43:56.023Z,14.5
2022-08-05T22:48:02.551Z,14.6
2022-08-05T22:50:21.041Z,14.4
2022-08-05T22:54:15.004Z,14.3
2022-08-05T22:58:28.656Z,14.4
2022-08-05T23:02:29.595Z,14.3
2022-08-05T23:04:30.845Z,14.4
2022-08-05T23:06:37.216Z,14.2
2022-08-05T23:10:43.604Z,14.3
2022-08-05T23:16:53.081Z,14.1
2022-08-05T23:18:56.236Z,14.1
2022-08-05T23:21:04.175Z,14
2022-08-05T23:23:08.272Z,14.1
2022-08-05T23:25:11.371Z,14.1
2022-08-05T23:27:57.534Z,14.2
2022-08-05T23:31:38.824Z,14.1
2022-08-05T23:34:04.699Z,14.1
2022-08-05T23:37:51.531Z,14.2
2022-08-05T23:39:55.041Z,14.2
2022-08-05T23:41:57.830Z,14.3
2022-08-05T23:44:05.250Z,14.1
2022-08-05T23:46:04.163Z,14.2
2022-08-05T23:48:10.540Z,14.1
2022-08-05T23:50:13.739Z,14.1
2022-08-05T23:52:16.879Z,14.2
2022-08-05T23:54:25.309Z,14.3
2022-08-05T23:56:27.233Z,14.4
2022-08-05T23:58:32.036Z,14.4
